Time;durP1;ratioP1;P1;durP2;ratioP2;P2;SDS_P1;SDS_P2;PMS_P1;PMS_P2;Temp;Humidity;BMP_temperature;BMP_pressure;BME280_temperature;BME280_humidity;BME280_pressure;Samples;Min_cycle;Max_cycle;Signal;HPM_P1;HPM_P2
2023/06/04 00:02:06;;;;;;;4.90;2.80;;;;;;;5.91;68.02;101207.46;102488;278;121543;-56
2023/06/04 00:04:46;;;;;;;5.40;2.70;;;;;;;5.90;68.09;101205.42;102499;278;104978;-57
2023/06/04 00:07:29;;;;;;;4.40;3.10;;;;;;;5.88;68.15;101203.65;102483;278;113611;-57
2023/06/04 00:10:10;;;;;;;5.60;3.30;;;;;;;5.84;68.29;101201.08;102481;278;92318;-56
2023/06/04 00:12:50;;;;;;;6.30;2.60;;;;;;;5.81;68.47;101201.75;102516;278;96049;-56
2023/06/04 00:15:40;;;;;;;4.90;2.50;;;;;;;5.77;68.53;101199.38;102529;278;123036;-57
2023/06/04 00:18:30;;;;;;;5.80;2.50;;;;;;;5.74;68.84;101198.29;102567;278;105796;-54
2023/06/04 00:21:11;;;;;;;5.70;2.30;;;;;;;5.70;68.95;101202.16;102497;278;114741;-55
2023/06/04 00:23:51;;;;;;;5.90;2.30;;;;;;;5.69;69.05;101198.93;102525;278;93589;-57
2023/06/04 00:26:33;;;;;;;4.80;3.00;;;;;;;5.69;69.18;101199.27;102497;278;97202;-57
2023/06/04 00:29:12;;;;;;;5.40;2.70;;;;;;;5.67;69.26;101196.73;102499;278;121638;-52
2023/06/04 00:31:54;;;;;;;5.70;2.50;;;;;;;5.64;69.26;101196.51;102492;278;104869;-54
2023/06/04 00:34:31;;;;;;;4.40;2.40;;;;;;;5.62;69.50;101195.82;102515;278;114724;-53
2023/06/04 00:37:06;;;;;;;4.90;2.90;;;;;;;5.60;69.47;101196.38;102494;278;96166;-53
2023/06/04 00:39:46;;;;;;;;;;;;;;;5.59;69.58;101195.73;102546;278;96756;-56
2023/06/04 00:42:23;;;;;;;5.00;2.50;;;;;;;5.57;69.72;101193.08;102524;279;120226;-56
2023/06/04 00:45:03;;;;;;;6.00;2.90;;;;;;;5.54;69.81;101196.31;102506;278;105192;-55
2023/06/04 00:47:40;;;;;;;5.00;3.00;;;;;;;5.55;69.71;101195.84;102490;278;113444;-54
2023/06/04 00:50:23;;;;;;;6.40;2.60;;;;;;;5.54;69.84;101198.65;102509;278;91178;-56
2023/06/04 00:53:08;;;;;;;7.40;3.00;;;;;;;5.53;69.84;101195.05;102546;278;97648;-56
2023/06/04 00:55:54;;;;;;;5.10;2.70;;;;;;;5.50;70.06;101197.11;102396;278;120297;-56
2023/06/04 00:58:38;;;;;;;8.70;3.40;;;;;;;5.48;70.09;101195.98;102517;278;105856;-54
2023/06/04 01:01:25;;;;;;;6.00;2.50;;;;;;;5.48;70.20;101196.57;102507;278;112925;-54
2023/06/04 01:04:06;;;;;;;4.90;2.70;;;;;;;5.45;70.25;101192.92;102496;278;96157;-55
2023/06/04 01:06:51;;;;;;;6.30;2.80;;;;;;;5.43;70.40;101192.85;102518;278;97880;-55
2023/06/04 01:09:28;;;;;;;6.20;2.50;;;;;;;5.42;70.51;101192.76;102502;278;121909;-55
2023/06/04 01:12:09;;;;;;;4.70;2.60;;;;;;;5.43;70.64;101195.75;102513;278;106402;-55
2023/06/04 01:14:44;;;;;;;7.20;2.70;;;;;;;5.41;70.67;101195.91;102477;278;114124;-57
2023/06/04 01:17:29;;;;;;;4.40;2.70;;;;;;;5.44;70.85;101192.85;102477;278;93582;-57
2023/06/04 01:20:44;;;;;;;4.70;2.80;;;;;;;5.41;70.94;101193.77;102474;278;97999;-54
2023/06/04 01:23:42;;;;;;;6.70;2.50;;;;;;;5.42;71.12;101191.54;102493;278;119888;-53
2023/06/04 01:26:18;;;;;;;5.10;2.70;;;;;;;5.44;71.18;101189.23;102527;278;105136;-54
2023/06/04 01:29:05;;;;;;;4.70;2.90;;;;;;;5.42;71.32;101191.77;102425;278;115536;-54
2023/06/04 01:31:45;;;;;;;5.10;2.30;;;;;;;5.42;71.36;101191.87;102460;267;95479;-54
2023/06/04 01:34:32;;;;;;;4.70;2.70;;;;;;;5.46;71.43;101191.05;102518;278;98523;-56
2023/06/04 01:37:16;;;;;;;4.50;2.80;;;;;;;5.48;71.36;101192.65;102498;278;121315;-56
2023/06/04 01:39:57;;;;;;;5.10;2.70;;;;;;;5.48;71.39;101190.48;102553;278;106542;-57
2023/06/04 01:42:33;;;;;;;5.00;2.70;;;;;;;5.48;71.46;101190.51;102511;278;114479;-57
2023/06/04 01:45:12;;;;;;;5.80;2.60;;;;;;;5.47;71.48;101187.88;102495;278;95442;-56
2023/06/04 01:47:50;;;;;;;5.80;3.10;;;;;;;5.45;71.61;101188.24;102525;278;97227;-56
2023/06/04 01:50:27;;;;;;;5.40;2.70;;;;;;;5.45;71.61;101188.77;102556;278;122151;-54
2023/06/04 01:53:07;;;;;;;5.70;2.40;;;;;;;5.49;71.68;101185.71;102529;278;104567;-54
2023/06/04 01:55:49;;;;;;;5.10;2.60;;;;;;;5.50;71.76;101185.07;102482;278;114437;-54
2023/06/04 01:58:28;;;;;;;7.20;2.60;;;;;;;5.49;71.88;101187.49;102538;278;95274;-53
2023/06/04 02:01:09;;;;;;;5.60;2.50;;;;;;;5.52;72.06;101186.14;102474;278;97342;-55
2023/06/04 02:03:52;;;;;;;4.30;2.60;;;;;;;5.53;71.98;101182.00;102514;278;121699;-55
2023/06/04 02:06:32;;;;;;;5.80;2.30;;;;;;;5.53;72.12;101181.09;102493;278;105585;-67
2023/06/04 02:09:10;;;;;;;4.70;2.20;;;;;;;5.53;72.21;101180.02;102507;278;114935;-56
2023/06/04 02:11:54;;;;;;;5.40;2.50;;;;;;;5.55;72.29;101178.06;102484;278;95775;-56
2023/06/04 02:14:33;;;;;;;6.30;2.50;;;;;;;5.56;72.33;101180.60;102519;278;97976;-56
2023/06/04 02:17:12;;;;;;;4.70;2.60;;;;;;;5.59;72.37;101181.59;102506;278;121805;-56
2023/06/04 02:19:49;;;;;;;5.10;2.90;;;;;;;5.64;72.50;101180.44;102532;278;105386;-57
2023/06/04 02:22:33;;;;;;;3.50;2.30;;;;;;;5.70;72.39;101180.23;102523;278;115746;-57
2023/06/04 02:25:10;;;;;;;4.20;2.70;;;;;;;5.71;72.43;101178.84;102516;278;92066;-53
2023/06/04 02:27:52;;;;;;;4.10;2.40;;;;;;;5.71;72.50;101180.17;102527;267;95649;-54
2023/06/04 02:30:28;;;;;;;5.00;2.50;;;;;;;5.69;72.45;101180.35;102522;267;121995;-56
2023/06/04 02:33:13;;;;;;;6.60;2.30;;;;;;;5.69;72.38;101176.41;102485;278;104117;-54
2023/06/04 02:35:57;;;;;;;5.90;2.90;;;;;;;5.73;72.32;101180.52;102483;278;114129;-54
2023/06/04 02:38:42;;;;;;;5.60;2.80;;;;;;;5.73;72.23;101182.77;102533;278;93512;-53
2023/06/04 02:41:27;;;;;;;5.70;2.70;;;;;;;5.72;72.21;101179.46;102432;278;97423;-54
2023/06/04 02:44:12;;;;;;;4.40;2.70;;;;;;;5.73;72.25;101183.52;102509;278;121944;-54
2023/06/04 02:46:58;;;;;;;6.40;3.00;;;;;;;5.76;72.33;101179.90;102512;278;103955;-53
2023/06/04 02:49:41;;;;;;;4.50;2.30;;;;;;;5.78;72.21;101184.16;102504;278;114534;-54
2023/06/04 02:52:28;;;;;;;7.80;3.30;;;;;;;5.78;72.17;101184.33;102514;278;94861;-53
2023/06/04 02:55:09;;;;;;;5.70;3.30;;;;;;;5.78;72.16;101182.33;102489;278;97958;-54
2023/06/04 02:57:49;;;;;;;6.90;2.80;;;;;;;5.80;72.23;101181.61;102487;278;121445;-53
2023/06/04 03:00:30;;;;;;;3.70;2.40;;;;;;;5.85;72.10;101180.48;102499;278;105721;-56
2023/06/04 03:03:16;;;;;;;5.10;2.90;;;;;;;5.88;72.14;101178.73;102515;278;114637;-55
2023/06/04 03:05:53;;;;;;;4.40;2.70;;;;;;;5.94;72.14;101179.61;102489;278;94591;-57
2023/06/04 03:08:36;;;;;;;4.60;2.50;;;;;;;5.97;72.20;101182.04;102522;278;96856;-54
2023/06/04 03:11:12;;;;;;;4.30;3.00;;;;;;;6.01;72.12;101179.52;102528;278;121731;-54
2023/06/04 03:13:57;;;;;;;6.70;3.30;;;;;;;6.02;72.24;101175.85;102556;278;105259;-53
2023/06/04 03:16:34;;;;;;;;;;;;;;;6.06;72.09;101175.15;102486;278;115196;-53
2023/06/04 03:19:16;;;;;;;4.20;2.60;;;;;;;6.10;72.19;101177.98;102486;278;95881;-54
2023/06/04 03:21:57;;;;;;;6.00;3.10;;;;;;;6.17;72.20;101174.10;102487;278;98530;-53
2023/06/04 03:24:37;;;;;;;4.50;2.70;;;;;;;6.23;72.29;101176.21;102462;278;122116;-53
2023/06/04 03:27:20;;;;;;;6.20;3.50;;;;;;;6.30;72.22;101178.75;102474;278;105093;-53
2023/06/04 03:30:01;;;;;;;;;;;;;;;6.37;72.20;101178.86;102504;278;113028;-56
2023/06/04 03:32:39;;;;;;;4.90;3.30;;;;;;;6.45;72.49;101178.56;102513;278;93727;-56
2023/06/04 03:35:23;;;;;;;7.30;3.70;;;;;;;6.57;72.55;101176.94;102517;278;96986;-53
2023/06/04 03:38:12;;;;;;;5.40;2.90;;;;;;;6.64;72.52;101175.23;102464;278;122094;-53
2023/06/04 03:40:52;;;;;;;6.10;3.30;;;;;;;6.73;72.45;101175.78;102496;278;105277;-54
2023/06/04 03:43:33;;;;;;;4.20;3.00;;;;;;;6.85;72.44;101181.42;102482;278;116088;-55
2023/06/04 03:46:15;;;;;;;4.60;3.50;;;;;;;7.00;72.47;101182.99;102501;278;94006;-54
2023/06/04 03:48:50;;;;;;;6.10;3.40;;;;;;;7.29;72.41;101182.48;102525;278;98170;-54
2023/06/04 03:51:34;;;;;;;6.40;3.80;;;;;;;7.62;72.12;101184.25;102509;279;121447;-53
2023/06/04 03:54:16;;;;;;;6.00;3.40;;;;;;;7.78;71.89;101183.89;102523;278;105559;-53
2023/06/04 03:56:56;;;;;;;6.60;3.60;;;;;;;7.92;71.77;101183.34;102469;278;114727;-54
2023/06/04 03:59:38;;;;;;;6.40;3.70;;;;;;;8.02;71.67;101186.89;102518;278;93903;-54
2023/06/04 04:02:17;;;;;;;5.20;4.10;;;;;;;8.02;71.60;101186.96;102509;279;98416;-53
2023/06/04 04:04:57;;;;;;;10.20;4.10;;;;;;;8.12;71.53;101183.67;102501;278;121355;-56
2023/06/04 04:07:37;;;;;;;5.40;3.40;;;;;;;8.35;71.36;101184.03;102479;278;104376;-57
2023/06/04 04:10:21;;;;;;;6.40;3.80;;;;;;;8.81;71.17;101181.57;102512;278;113667;-54
2023/06/04 04:12:59;;;;;;;;;;;;;;;9.63;70.71;101181.30;102433;279;93671;-54
2023/06/04 04:15:41;;;;;;;7.70;4.40;;;;;;;10.50;70.03;101177.66;102517;278;97617;-54
2023/06/04 04:18:22;;;;;;;6.60;4.00;;;;;;;11.58;68.74;101170.10;102513;278;121238;-54
2023/06/04 04:21:03;;;;;;;6.10;3.70;;;;;;;11.56;67.75;101171.45;102494;278;105312;-54
2023/06/04 04:23:38;;;;;;;6.00;3.20;;;;;;;11.45;67.34;101170.44;102486;278;114924;-54
2023/06/04 04:26:17;;;;;;;5.00;3.00;;;;;;;11.24;67.31;101174.23;102524;278;92676;-55
2023/06/04 04:28:57;;;;;;;4.00;2.20;;;;;;;11.04;67.12;101174.00;102499;278;98465;-57
2023/06/04 04:31:39;;;;;;;4.80;2.90;;;;;;;10.86;66.97;101172.29;102548;278;122826;-57
2023/06/04 04:34:21;;;;;;;6.90;2.70;;;;;;;10.77;66.96;101172.67;102518;278;105959;-57
2023/06/04 04:37:05;;;;;;;6.90;2.00;;;;;;;10.70;67.22;101173.78;102498;278;115701;-56
2023/06/04 04:39:45;;;;;;;3.30;2.20;;;;;;;10.74;67.57;101173.19;102486;278;92933;-57
2023/06/04 04:42:35;;;;;;;3.20;2.20;;;;;;;11.10;67.74;101168.84;102495;278;96929;-58
2023/06/04 04:45:17;;;;;;;3.90;2.00;;;;;;;12.52;67.36;101167.71;102516;278;120150;-55
2023/06/04 04:47:54;;;;;;;3.20;1.70;;;;;;;14.91;64.93;101157.07;102479;278;104704;-56
2023/06/04 04:50:32;;;;;;;2.80;1.70;;;;;;;17.01;61.87;101152.98;102541;278;114864;-55
2023/06/04 04:53:13;;;;;;;3.60;2.40;;;;;;;18.45;59.12;101148.92;102524;278;95049;-57
2023/06/04 04:55:52;;;;;;;3.20;1.70;;;;;;;19.86;56.92;101150.55;102556;274;98515;-58
2023/06/04 04:58:33;;;;;;;3.80;2.40;;;;;;;21.11;54.74;101147.77;102588;278;121371;-55
2023/06/04 05:01:18;;;;;;;2.30;1.70;;;;;;;22.38;52.85;101150.95;102517;278;105643;-55
2023/06/04 05:03:56;;;;;;;3.70;1.70;;;;;;;23.63;50.28;101142.50;102484;278;114230;-56
2023/06/04 05:06:38;;;;;;;2.90;2.00;;;;;;;24.74;48.00;101147.55;102498;278;94526;-55
2023/06/04 05:09:16;;;;;;;3.20;2.00;;;;;;;25.42;45.62;101141.66;102499;278;97611;-55
2023/06/04 05:11:57;;;;;;;4.40;2.10;;;;;;;25.95;43.62;101145.55;102536;278;121362;-55
2023/06/04 05:14:31;;;;;;;3.10;1.80;;;;;;;26.67;41.92;101140.73;102494;278;104527;-55
2023/06/04 05:17:21;;;;;;;2.30;1.60;;;;;;;27.60;39.49;101136.89;102354;279;115320;-54
2023/06/04 05:20:01;;;;;;;4.40;1.60;;;;;;;28.24;37.88;101135.08;102478;278;93576;-57
2023/06/04 05:22:45;;;;;;;3.60;1.80;;;;;;;28.70;35.85;101134.07;102510;278;97075;-57
2023/06/04 05:25:23;;;;;;;4.10;1.90;;;;;;;29.27;33.70;101130.73;102527;278;121886;-54
2023/06/04 05:28:01;;;;;;;2.70;1.70;;;;;;;29.55;32.22;101130.35;102500;278;104222;-56
2023/06/04 05:30:36;;;;;;;3.40;1.80;;;;;;;29.90;31.38;101130.80;102508;278;114515;-55
2023/06/04 05:33:18;;;;;;;5.40;1.80;;;;;;;30.07;30.53;101134.80;102529;278;94202;-56
2023/06/04 05:35:58;;;;;;;1.70;1.40;;;;;;;30.71;29.65;101136.98;102531;278;96998;-56
2023/06/04 05:38:37;;;;;;;3.10;1.70;;;;;;;31.14;28.69;101136.09;102519;278;121611;-59
2023/06/04 05:41:14;;;;;;;2.60;1.50;;;;;;;31.47;27.48;101130.25;102506;278;105357;-58
2023/06/04 05:44:01;;;;;;;4.10;2.00;;;;;;;31.68;26.65;101132.11;102572;279;114403;-58
2023/06/04 05:46:45;;;;;;;3.50;1.30;;;;;;;31.75;25.88;101130.97;102569;278;95228;-58
2023/06/04 05:49:32;;;;;;;4.40;1.30;;;;;;;31.85;25.37;101132.83;102045;278;768987;-57
2023/06/04 05:52:18;;;;;;;2.80;1.20;;;;;;;32.27;25.01;101126.63;102468;278;121827;-57
2023/06/04 05:54:57;;;;;;;2.00;1.30;;;;;;;32.64;24.59;101128.55;102485;278;105503;-58
2023/06/04 05:57:35;;;;;;;3.30;1.40;;;;;;;32.82;23.92;101127.92;102511;278;113474;-58
2023/06/04 06:00:13;;;;;;;3.30;1.40;;;;;;;32.83;23.23;101128.84;102510;278;94275;-56
2023/06/04 06:02:56;;;;;;;3.10;1.20;;;;;;;33.09;22.87;101124.98;102518;278;96289;-56
2023/06/04 06:05:43;;;;;;;1.50;1.00;;;;;;;33.26;22.03;101128.30;102480;278;121944;-56
2023/06/04 06:08:23;;;;;;;3.80;1.10;;;;;;;33.49;21.80;101129.52;102507;278;105943;-58
2023/06/04 06:11:07;;;;;;;2.00;1.00;;;;;;;33.95;21.48;101127.58;102504;278;115035;-56
2023/06/04 06:13:45;;;;;;;2.70;1.40;;;;;;;33.98;21.13;101133.10;102485;278;94880;-56
2023/06/04 06:16:24;;;;;;;1.80;1.30;;;;;;;33.86;20.48;101135.97;102530;278;96757;-55
2023/06/04 06:19:01;;;;;;;3.40;1.20;;;;;;;34.13;20.49;101137.84;102520;278;120775;-65
2023/06/04 06:21:37;;;;;;;2.80;0.80;;;;;;;34.09;20.14;101140.34;102536;278;106371;-57
2023/06/04 06:24:14;;;;;;;3.20;1.20;;;;;;;34.02;19.95;101139.65;102542;278;114135;-59
2023/06/04 06:27:00;;;;;;;1.30;1.00;;;;;;;34.24;19.66;101140.14;102532;267;93776;-60
2023/06/04 06:29:40;;;;;;;1.50;0.90;;;;;;;34.58;19.52;101143.63;102538;278;97901;-59
2023/06/04 06:32:22;;;;;;;1.80;0.90;;;;;;;34.87;19.18;101146.23;102520;278;121804;-58
2023/06/04 06:35:07;;;;;;;2.10;1.00;;;;;;;35.13;18.68;101146.92;102581;278;104495;-55
2023/06/04 06:37:55;;;;;;;2.70;0.90;;;;;;;35.10;18.90;101149.73;102542;278;113356;-52
2023/06/04 06:40:33;;;;;;;2.50;1.00;;;;;;;34.90;18.35;101149.11;102386;279;94662;-58
2023/06/04 06:43:12;;;;;;;3.10;1.30;;;;;;;34.16;18.27;101148.86;102527;278;97369;-56
2023/06/04 06:45:54;;;;;;;1.40;1.00;;;;;;;34.77;18.49;101152.53;102508;278;121075;-56
2023/06/04 06:48:36;;;;;;;2.00;1.10;;;;;;;35.35;18.07;101155.33;102543;278;105042;-55
2023/06/04 06:51:13;;;;;;;2.10;0.90;;;;;;;35.18;17.74;101160.93;102503;278;114794;-56
2023/06/04 06:53:51;;;;;;;1.70;1.10;;;;;;;35.23;17.51;101156.67;102526;278;94710;-55
2023/06/04 06:56:41;;;;;;;1.60;0.80;;;;;;;35.35;17.35;101152.11;102547;278;96191;-56
2023/06/04 06:59:22;;;;;;;2.80;1.00;;;;;;;35.54;17.24;101156.95;102547;278;121170;-56
2023/06/04 07:02:06;;;;;;;2.90;1.10;;;;;;;35.08;16.92;101161.58;102531;278;104420;-56
2023/06/04 07:04:47;;;;;;;4.00;1.30;;;;;;;34.91;17.36;101157.27;102570;278;115104;-55
2023/06/04 07:07:28;;;;;;;1.40;0.80;;;;;;;35.12;17.22;101163.94;102525;278;95123;-55
2023/06/04 07:10:06;;;;;;;2.20;0.90;;;;;;;34.91;16.96;101165.66;102579;278;98655;-56
2023/06/04 07:12:48;;;;;;;1.90;1.00;;;;;;;34.78;16.64;101162.21;102577;278;121084;-56
2023/06/04 07:15:28;;;;;;;1.20;0.90;;;;;;;35.20;16.60;101161.60;102559;278;106515;-57
2023/06/04 07:18:13;;;;;;;1.00;0.80;;;;;;;35.32;16.29;101165.82;102600;278;114634;-59
2023/06/04 07:20:52;;;;;;;2.60;1.10;;;;;;;35.29;16.04;101171.69;102550;278;94427;-58
2023/06/04 07:23:29;;;;;;;2.40;0.90;;;;;;;35.61;15.55;101162.77;102598;278;97259;-59
2023/06/04 07:26:10;;;;;;;1.00;0.70;;;;;;;35.36;15.93;101162.84;102539;278;120283;-60
2023/06/04 07:28:50;;;;;;;1.60;0.80;;;;;;;35.11;15.88;101162.08;102556;278;106180;-56
2023/06/04 07:31:31;;;;;;;1.10;0.60;;;;;;;34.95;15.78;101164.02;102509;278;113318;-56
2023/06/04 07:34:15;;;;;;;3.30;1.00;;;;;;;34.89;15.76;101166.80;102510;278;94956;-59
2023/06/04 07:37:01;;;;;;;2.60;1.00;;;;;;;34.40;15.51;101156.73;102529;278;97266;-59
2023/06/04 07:39:39;;;;;;;1.70;1.00;;;;;;;34.79;15.61;101163.62;102530;278;122230;-58
2023/06/04 07:42:20;;;;;;;1.70;0.90;;;;;;;35.50;15.61;101160.13;102488;278;105533;-58
2023/06/04 07:45:03;;;;;;;1.30;1.00;;;;;;;35.49;15.25;101161.08;102515;278;116214;-55
2023/06/04 07:47:44;;;;;;;4.20;1.40;;;;;;;35.48;15.34;101161.29;102478;278;94310;-56
2023/06/04 07:50:28;;;;;;;1.20;0.80;;;;;;;35.70;15.38;101158.19;102522;278;96511;-56
2023/06/04 07:53:08;;;;;;;2.50;1.00;;;;;;;35.50;15.39;101159.51;102524;278;120780;-57
2023/06/04 07:55:53;;;;;;;2.20;1.20;;;;;;;35.32;15.05;101158.35;102438;278;105480;-56
2023/06/04 07:58:31;;;;;;;1.60;1.00;;;;;;;35.09;15.52;101151.04;102501;278;114843;-59
2023/06/04 08:01:12;;;;;;;3.80;1.20;;;;;;;34.20;16.02;101151.30;102519;278;94032;-58
2023/06/04 08:03:51;;;;;;;1.60;1.20;;;;;;;34.57;15.93;101155.70;102582;278;96899;-58
2023/06/04 08:06:29;;;;;;;1.60;1.00;;;;;;;34.83;15.60;101157.21;102594;279;122228;-59
2023/06/04 08:09:09;;;;;;;2.70;0.90;;;;;;;35.14;15.55;101154.02;102546;279;105301;-59
2023/06/04 08:11:53;;;;;;;2.40;1.10;;;;;;;34.51;15.58;101157.48;102508;267;114124;-58
2023/06/04 08:14:35;;;;;;;1.50;0.90;;;;;;;34.39;15.79;101155.64;102525;279;93714;-58
2023/06/04 08:17:20;;;;;;;1.70;1.00;;;;;;;34.42;15.64;101156.02;102566;279;97603;-58
2023/06/04 08:20:06;;;;;;;1.60;1.00;;;;;;;34.11;15.68;101159.11;102526;279;122149;-63
2023/06/04 08:22:48;;;;;;;1.70;1.30;;;;;;;33.89;15.59;101155.70;102520;279;103961;-55
2023/06/04 08:25:31;;;;;;;2.00;1.10;;;;;;;33.85;15.82;101150.38;102504;279;115480;-58
2023/06/04 08:28:08;;;;;;;2.20;1.10;;;;;;;33.62;15.76;101149.74;102501;279;95060;-57
2023/06/04 08:30:45;;;;;;;2.50;1.00;;;;;;;33.82;15.95;101147.54;102474;279;98164;-58
2023/06/04 08:33:27;;;;;;;1.60;1.00;;;;;;;34.13;15.77;101140.88;102507;279;121965;-54
2023/06/04 08:36:04;;;;;;;1.40;1.00;;;;;;;34.22;16.09;101135.77;102487;279;104794;-55
2023/06/04 08:38:38;;;;;;;1.70;1.20;;;;;;;34.22;16.24;101137.83;102502;279;114684;-55
2023/06/04 08:41:16;;;;;;;2.20;1.00;;;;;;;33.88;16.16;101139.73;102477;279;94480;-55
2023/06/04 08:44:01;;;;;;;1.80;1.10;;;;;;;33.59;16.28;101141.17;102562;279;97611;-55
2023/06/04 08:46:40;;;;;;;1.40;1.00;;;;;;;33.55;16.28;101133.15;102527;279;120262;-55
2023/06/04 08:49:18;;;;;;;1.70;1.00;;;;;;;33.16;16.50;101126.91;102526;279;103390;-58
2023/06/04 08:51:59;;;;;;;2.50;1.00;;;;;;;33.30;16.67;101126.64;102436;280;115798;-58
2023/06/04 08:54:47;;;;;;;2.70;1.20;;;;;;;33.12;16.87;101125.08;102578;279;93472;-54
2023/06/04 08:57:34;;;;;;;1.90;1.10;;;;;;;32.34;17.26;101125.77;102513;279;98072;-54
2023/06/04 09:00:18;;;;;;;3.20;0.90;;;;;;;31.81;17.04;101128.92;102549;279;121261;-57
2023/06/04 09:02:55;;;;;;;2.50;1.00;;;;;;;30.52;17.10;101140.45;102463;280;104539;-57
2023/06/04 09:05:45;;;;;;;1.40;1.00;;;;;;;29.45;17.72;101140.48;102515;278;114446;-54
2023/06/04 09:08:25;;;;;;;1.90;1.00;;;;;;;28.53;18.40;101143.83;102530;278;94435;-56
2023/06/04 09:11:07;;;;;;;1.00;0.90;;;;;;;28.23;18.91;101146.48;102543;278;97072;-56
2023/06/04 09:13:54;;;;;;;2.20;1.20;;;;;;;27.77;18.88;101144.77;102428;279;121862;-56
2023/06/04 09:16:37;;;;;;;1.70;0.80;;;;;;;27.63;19.86;101138.29;102557;278;104613;-54
2023/06/04 09:19:17;;;;;;;2.40;0.90;;;;;;;27.73;20.00;101137.08;102514;278;114993;-58
2023/06/04 09:22:02;;;;;;;1.40;0.90;;;;;;;27.75;20.16;101139.02;102494;278;95229;-56
2023/06/04 09:24:47;;;;;;;2.50;1.00;;;;;;;27.33;19.69;101134.05;102588;278;97815;-58
2023/06/04 09:27:40;;;;;;;1.60;1.20;;;;;;;26.99;20.09;101137.00;102511;278;122162;-58
2023/06/04 09:30:25;;;;;;;1.50;0.60;;;;;;;26.29;20.16;101140.54;102575;278;103232;-55
2023/06/04 09:33:12;;;;;;;1.80;1.00;;;;;;;26.47;20.66;101135.40;102584;278;112572;-57
2023/06/04 09:35:56;;;;;;;;;;;;;;;26.36;20.63;101134.89;102446;278;97053;-57
2023/06/04 09:38:41;;;;;;;1.20;0.70;;;;;;;26.00;20.49;101133.15;102569;278;96102;-57
2023/06/04 09:41:23;;;;;;;1.20;0.80;;;;;;;25.83;20.94;101127.28;102439;278;121553;-58
2023/06/04 09:44:10;;;;;;;1.80;1.20;;;;;;;25.77;21.20;101126.60;102564;278;104923;-55
2023/06/04 09:46:56;;;;;;;3.80;1.10;;;;;;;25.18;21.38;101123.16;102543;278;113692;-55
2023/06/04 09:49:45;;;;;;;3.90;1.00;;;;;;;24.93;21.70;101118.48;102492;278;94169;-54
2023/06/04 09:52:35;;;;;;;1.20;0.90;;;;;;;24.97;22.20;101110.81;102570;278;97835;-54
2023/06/04 09:55:22;;;;;;;1.90;0.80;;;;;;;25.32;22.69;101117.48;102348;278;121580;-52
2023/06/04 09:58:06;;;;;;;2.20;0.90;;;;;;;25.61;22.34;101122.39;102524;278;104123;-54
2023/06/04 10:00:50;;;;;;;1.00;0.70;;;;;;;25.70;21.93;101121.98;102507;278;112565;-55
2023/06/04 10:03:31;;;;;;;1.00;0.80;;;;;;;25.45;21.45;101118.05;102518;278;92997;-57
2023/06/04 10:06:09;;;;;;;4.00;1.10;;;;;;;25.42;22.00;101115.59;102503;278;97831;-56
2023/06/04 10:09:00;;;;;;;1.90;0.80;;;;;;;25.48;22.03;101113.05;102511;278;121174;-56
2023/06/04 10:11:41;;;;;;;1.90;0.80;;;;;;;25.31;21.49;101111.10;102536;278;104588;-55
2023/06/04 10:14:27;;;;;;;1.50;1.10;;;;;;;25.03;21.51;101105.76;102560;278;114428;-66
2023/06/04 10:17:06;;;;;;;2.20;0.80;;;;;;;24.91;21.97;101099.39;102497;278;93413;-65
2023/06/04 10:19:47;;;;;;;2.30;0.80;;;;;;;24.93;22.23;101099.73;102522;278;97764;-64
2023/06/04 10:22:29;;;;;;;2.80;1.00;;;;;;;24.91;22.26;101098.66;102505;278;119708;-64
2023/06/04 10:25:12;;;;;;;1.70;0.90;;;;;;;24.65;21.80;101106.64;102566;279;105962;-65
2023/06/04 10:27:53;;;;;;;1.10;0.80;;;;;;;24.47;21.93;101102.90;102555;278;114522;-63
2023/06/04 10:30:28;;;;;;;1.80;0.90;;;;;;;24.36;22.66;101099.00;102563;278;94104;-64
2023/06/04 10:33:07;;;;;;;2.50;1.20;;;;;;;24.54;22.67;101099.47;102578;278;96515;-63
2023/06/04 10:35:48;;;;;;;1.90;0.90;;;;;;;24.73;22.56;101095.59;102569;278;120828;-64
2023/06/04 10:38:32;;;;;;;1.70;0.70;;;;;;;24.77;22.33;101091.48;102590;278;105916;-65
2023/06/04 10:41:21;;;;;;;1.70;1.00;;;;;;;24.71;22.33;101096.08;102429;280;113012;-66
2023/06/04 10:44:04;;;;;;;2.40;1.00;;;;;;;24.49;22.09;101094.79;102542;278;94986;-66
2023/06/04 10:46:50;;;;;;;1.80;0.90;;;;;;;24.34;22.26;101093.34;102523;278;97520;-65
2023/06/04 10:49:39;;;;;;;1.60;0.90;;;;;;;24.37;22.17;101092.09;102547;278;121558;-62
2023/06/04 10:52:22;;;;;;;2.60;0.90;;;;;;;24.31;22.88;101090.27;102514;278;105581;-62
2023/06/04 10:55:09;;;;;;;2.40;0.80;;;;;;;24.47;23.03;101085.60;102406;279;113886;-65
2023/06/04 10:57:59;;;;;;;1.60;0.80;;;;;;;24.47;23.48;101085.77;102409;279;93345;-66
2023/06/04 11:00:43;;;;;;;1.10;0.80;;;;;;;24.23;22.99;101082.20;102455;279;99142;-63
2023/06/04 11:03:19;;;;;;;1.40;0.80;;;;;;;24.12;23.13;101083.63;102530;279;122128;-67
2023/06/04 11:06:00;;;;;;;1.90;0.90;;;;;;;23.96;22.91;101081.36;102466;280;104768;-68
2023/06/04 11:08:45;;;;;;;2.00;1.20;;;;;;;24.02;22.96;101087.11;102364;279;113918;-64
2023/06/04 11:11:33;;;;;;;2.00;1.00;;;;;;;23.79;23.03;101083.11;102524;279;93557;-64
2023/06/04 11:14:17;;;;;;;2.70;1.00;;;;;;;23.78;23.22;101081.06;102606;279;98400;-64
2023/06/04 11:16:52;;;;;;;1.30;0.80;;;;;;;23.78;24.16;101080.34;102543;279;122407;-64
2023/06/04 11:19:41;;;;;;;2.90;0.90;;;;;;;23.96;24.17;101077.77;102585;279;105106;-68
2023/06/04 11:22:28;;;;;;;2.20;1.00;;;;;;;24.00;23.91;101073.73;102419;279;113647;-67
2023/06/04 11:25:09;;;;;;;2.10;0.90;;;;;;;24.16;23.48;101074.96;102539;279;94227;-64
2023/06/04 11:28:06;;;;;;;1.30;0.70;;;;;;;24.17;23.65;101078.23;102588;279;98781;-64
2023/06/04 11:30:57;;;;;;;2.00;0.70;;;;;;;24.11;23.52;101075.67;102540;279;121783;-62
2023/06/04 11:33:44;;;;;;;1.40;0.70;;;;;;;23.80;23.31;101080.26;102514;279;103711;-67
2023/06/04 11:36:30;;;;;;;2.20;0.90;;;;;;;23.81;23.52;101074.98;102534;279;113055;-68
2023/06/04 11:39:12;;;;;;;1.80;0.90;;;;;;;23.81;23.58;101077.73;102505;279;95136;-62
2023/06/04 11:41:59;;;;;;;3.60;0.80;;;;;;;23.78;23.78;101074.77;102493;279;97318;-63
2023/06/04 11:44:48;;;;;;;2.20;1.20;;;;;;;23.88;23.97;101072.50;102505;279;122549;-64
2023/06/04 11:47:29;;;;;;;1.60;0.90;;;;;;;23.94;23.97;101073.83;102503;279;105310;-64
2023/06/04 11:50:09;;;;;;;2.10;1.00;;;;;;;23.92;23.72;101075.54;102337;280;113141;-65
2023/06/04 11:52:51;;;;;;;1.80;1.00;;;;;;;23.80;23.50;101073.73;102550;279;93120;-66
2023/06/04 11:55:33;;;;;;;1.80;0.90;;;;;;;23.55;23.61;101073.52;102579;279;98341;-67
2023/06/04 11:58:17;;;;;;;2.10;0.80;;;;;;;23.49;23.83;101067.48;102609;279;121084;-65
2023/06/04 12:01:07;;;;;;;1.30;0.80;;;;;;;23.56;24.01;101066.64;102584;279;105872;-64
2023/06/04 12:03:48;;;;;;;2.60;1.10;;;;;;;23.77;24.47;101062.91;102574;279;113766;-66
2023/06/04 12:06:27;;;;;;;3.80;1.30;;;;;;;23.92;24.50;101063.38;102455;279;93392;-65
2023/06/04 12:09:09;;;;;;;1.30;0.80;;;;;;;24.01;24.20;101062.09;102599;279;97934;-67
2023/06/04 12:11:46;;;;;;;1.60;1.20;;;;;;;23.96;24.09;101062.98;102402;279;120592;-64
2023/06/04 12:14:35;;;;;;;2.20;1.10;;;;;;;23.95;23.94;101060.88;102544;279;104584;-66
2023/06/04 12:17:18;;;;;;;4.00;1.30;;;;;;;23.93;23.94;101060.79;102564;279;114198;-65
2023/06/04 12:20:07;;;;;;;2.90;1.00;;;;;;;23.93;24.13;101057.88;102587;279;95463;-64
2023/06/04 12:23:01;;;;;;;2.20;0.90;;;;;;;23.86;24.33;101062.11;102412;279;97499;-65
2023/06/04 12:25:51;;;;;;;1.20;0.80;;;;;;;23.58;24.30;101063.55;102548;279;121917;-66
2023/06/04 12:28:31;;;;;;;1.10;0.70;;;;;;;23.70;24.65;101063.59;102557;279;103682;-62
2023/06/04 12:31:20;;;;;;;1.30;0.80;;;;;;;23.87;24.33;101063.78;102538;279;114917;-63
2023/06/04 12:34:03;;;;;;;1.90;1.20;;;;;;;23.91;24.67;101059.06;102408;279;95192;-69